Time;durP1;ratioP1;P1;durP2;ratioP2;P2;SDS_P1;SDS_P2;PMS_P1;PMS_P2;Temp;Humidity;BMP_temperature;BMP_pressure;BME280_temperature;BME280_humidity;BME280_pressure;Samples;Min_cycle;Max_cycle;Signal;HPM_P1;HPM_P2
2022/12/09 00:00:36;;;;;;;;;;;0.90;99.90;;;;;;5002246;28;20317;-70
2022/12/09 00:03:01;;;;;;;;;;;0.90;99.90;;;;;;5026233;28;19909;-69
2022/12/09 00:05:27;;;;;;;;;;;0.90;99.90;;;;;;5011959;28;20308;-70
2022/12/09 00:07:52;;;;;;;;;;;0.80;99.90;;;;;;5029176;28;21102;-70
2022/12/09 00:10:18;;;;;;;;;;;0.80;99.90;;;;;;5004976;28;19913;-70
2022/12/09 00:12:44;;;;;;;;;;;0.80;99.90;;;;;;5027812;28;19953;-70
2022/12/09 00:15:09;;;;;;;;;;;0.80;99.90;;;;;;5027763;28;19913;-70
2022/12/09 00:17:35;;;;;;;;;;;0.80;99.90;;;;;;5028600;28;20000;-70
2022/12/09 00:20:00;;;;;;;;;;;0.70;99.90;;;;;;5026096;28;19924;-70
2022/12/09 00:22:26;;;;;;;;;;;0.70;99.90;;;;;;5027562;28;19975;-70
2022/12/09 00:24:52;;;;;;;;;;;0.70;99.90;;;;;;5005114;28;19914;-70
2022/12/09 00:27:17;;;;;;;;;;;0.70;99.90;;;;;;5027333;28;19917;-69
2022/12/09 00:29:43;;;;;;;;;;;0.70;99.90;;;;;;5031801;28;20307;-70
2022/12/09 00:32:09;;;;;;;;;;;0.70;99.90;;;;;;5025501;28;19919;-70
2022/12/09 00:34:34;;;;;;;;;;;0.70;99.90;;;;;;5031212;28;19924;-70
2022/12/09 00:37:00;;;;;;;;;;;0.70;99.90;;;;;;5030936;28;20685;-69
2022/12/09 00:39:25;;;;;;;;;;;0.70;99.90;;;;;;5031105;28;19968;-70
2022/12/09 00:41:51;;;;;;;;;;;0.70;99.90;;;;;;5031788;28;20007;-70
2022/12/09 00:44:17;;;;;;;;;;;0.70;99.90;;;;;;5032766;28;20333;-69
2022/12/09 00:46:42;;;;;;;;;;;0.70;99.90;;;;;;4998075;28;20319;-70
2022/12/09 00:49:08;;;;;;;;;;;0.80;99.90;;;;;;5033364;28;19917;-70
2022/12/09 00:51:34;;;;;;;;;;;0.80;99.90;;;;;;5031676;28;19920;-70
2022/12/09 00:54:00;;;;;;;;;;;0.80;99.90;;;;;;5030403;28;19917;-70
2022/12/09 00:56:27;;;;;;;;;;;0.70;99.90;;;;;;5030687;28;20369;-70
2022/12/09 00:58:52;;;;;;;;;;;0.70;99.90;;;;;;5009906;28;19913;-70
2022/12/09 01:01:18;;;;;;;;;;;0.60;99.90;;;;;;5025119;28;19999;-70
2022/12/09 01:03:44;;;;;;;;;;;0.60;99.90;;;;;;5031917;28;19913;-70
2022/12/09 01:06:10;;;;;;;;;;;0.60;99.90;;;;;;5031306;28;19967;-70
2022/12/09 01:08:36;;;;;;;;;;;0.60;99.90;;;;;;5031018;28;19917;-69
2022/12/09 01:11:06;;;;;;;;;;;0.60;99.90;;;;;;5021038;28;19924;-70
2022/12/09 01:13:32;;;;;;;;;;;0.60;99.90;;;;;;5031575;28;20335;-69
2022/12/09 01:15:58;;;;;;;;;;;0.60;99.90;;;;;;5030057;28;19963;-69
2022/12/09 01:18:23;;;;;;;;;;;0.60;99.90;;;;;;5030461;28;19932;-69
2022/12/09 01:20:58;;;;;;;;;;;0.60;99.90;;;;;;5028317;28;19913;-69
2022/12/09 01:23:24;;;;;;;;;;;0.60;99.90;;;;;;5015112;28;19925;-69
2022/12/09 01:25:49;;;;;;;;;;;0.60;99.90;;;;;;5028325;28;19913;-69
2022/12/09 01:28:15;;;;;;;;;;;0.70;99.90;;;;;;5032058;28;20023;-69
2022/12/09 01:30:40;;;;;;;;;;;0.70;99.90;;;;;;5030041;28;20468;-69
2022/12/09 01:33:06;;;;;;;;;;;0.70;99.90;;;;;;5032233;28;19913;-69
2022/12/09 01:35:32;;;;;;;;;;;0.70;99.90;;;;;;5021457;28;20326;-69
2022/12/09 01:37:57;;;;;;;;;;;0.70;99.90;;;;;;5019386;28;19956;-69
2022/12/09 01:40:23;;;;;;;;;;;0.70;99.90;;;;;;5024332;28;19956;-70
2022/12/09 01:42:50;;;;;;;;;;;0.70;99.90;;;;;;5030669;28;19925;-70
2022/12/09 01:45:19;;;;;;;;;;;0.70;99.90;;;;;;5030152;28;20323;-70
2022/12/09 01:47:45;;;;;;;;;;;0.80;99.90;;;;;;5029850;28;19952;-70
2022/12/09 01:50:11;;;;;;;;;;;0.80;99.90;;;;;;5013765;28;19913;-70
2022/12/09 01:52:36;;;;;;;;;;;0.80;99.90;;;;;;5030199;28;19916;-70
2022/12/09 01:55:02;;;;;;;;;;;0.80;99.90;;;;;;5028117;28;19924;-70
2022/12/09 01:57:28;;;;;;;;;;;0.90;99.90;;;;;;5028738;28;20038;-70
2022/12/09 01:59:53;;;;;;;;;;;0.90;99.90;;;;;;5031012;28;19923;-70
2022/12/09 02:02:19;;;;;;;;;;;0.90;99.90;;;;;;5026633;28;19932;-70
2022/12/09 02:04:46;;;;;;;;;;;1.00;99.90;;;;;;5029819;28;20010;-70
2022/12/09 02:07:11;;;;;;;;;;;1.00;99.90;;;;;;5029641;28;19913;-70
2022/12/09 02:09:37;;;;;;;;;;;1.00;99.90;;;;;;5025182;28;19933;-70
2022/12/09 02:12:13;;;;;;;;;;;1.00;99.90;;;;;;5030196;28;19913;-69
2022/12/09 02:14:40;;;;;;;;;;;1.00;99.90;;;;;;5030108;28;19912;-69
2022/12/09 02:17:18;;;;;;;;;;;1.00;99.90;;;;;;5013448;28;19924;-69
2022/12/09 02:20:07;;;;;;;;;;;1.00;99.90;;;;;;5029600;28;20394;-69
2022/12/09 02:22:46;;;;;;;;;;;1.00;99.90;;;;;;5024268;28;19912;-70
2022/12/09 02:25:20;;;;;;;;;;;1.00;99.90;;;;;;5029607;28;19912;-69
2022/12/09 02:28:10;;;;;;;;;;;1.00;99.90;;;;;;5025800;28;19913;-68
2022/12/09 02:30:45;;;;;;;;;;;1.00;99.90;;;;;;5013361;28;20250;-69
2022/12/09 02:33:14;;;;;;;;;;;1.00;99.90;;;;;;5012185;28;20246;-69
2022/12/09 02:35:41;;;;;;;;;;;1.00;99.90;;;;;;5025860;28;20003;-70
2022/12/09 02:38:07;;;;;;;;;;;1.00;99.90;;;;;;5008259;28;20432;-70
2022/12/09 02:40:34;;;;;;;;;;;1.00;99.90;;;;;;5028578;28;19917;-69
2022/12/09 02:43:00;;;;;;;;;;;1.00;99.90;;;;;;5002212;28;19917;-69
2022/12/09 02:45:26;;;;;;;;;;;1.00;99.90;;;;;;5025286;28;19963;-69
2022/12/09 02:47:52;;;;;;;;;;;1.00;99.90;;;;;;5012413;28;20014;-69
2022/12/09 02:50:19;;;;;;;;;;;1.00;99.90;;;;;;5027117;28;20035;-69
2022/12/09 02:52:45;;;;;;;;;;;1.00;99.90;;;;;;5012425;28;19913;-69
2022/12/09 02:55:11;;;;;;;;;;;1.00;99.90;;;;;;5026301;28;19970;-70
2022/12/09 02:57:37;;;;;;;;;;;0.90;99.90;;;;;;5008595;28;19959;-70
2022/12/09 03:00:04;;;;;;;;;;;0.90;99.90;;;;;;5026756;28;19983;-70
2022/12/09 03:02:38;;;;;;;;;;;0.80;99.90;;;;;;5008002;28;19955;-70
2022/12/09 03:05:20;;;;;;;;;;;0.80;99.90;;;;;;5024788;28;19917;-69
2022/12/09 03:07:49;;;;;;;;;;;0.80;99.90;;;;;;5025955;28;20023;-70
2022/12/09 03:10:16;;;;;;;;;;;0.80;99.90;;;;;;5040926;28;19927;-70
2022/12/09 03:12:44;;;;;;;;;;;0.70;99.90;;;;;;5020480;28;19912;-69
2022/12/09 03:15:10;;;;;;;;;;;0.70;99.90;;;;;;5019097;28;19919;-69
2022/12/09 03:17:36;;;;;;;;;;;0.70;99.90;;;;;;5019775;28;19913;-69
2022/12/09 03:20:03;;;;;;;;;;;0.60;99.90;;;;;;5026149;28;20380;-69
2022/12/09 03:22:28;;;;;;;;;;;0.60;99.90;;;;;;5025614;28;19939;-69
2022/12/09 03:24:56;;;;;;;;;;;0.60;99.90;;;;;;5025412;28;19913;-69
2022/12/09 03:27:24;;;;;;;;;;;0.60;99.90;;;;;;5024124;28;20270;-69
2022/12/09 03:29:50;;;;;;;;;;;0.50;99.90;;;;;;5024425;28;19917;-70
2022/12/09 03:32:16;;;;;;;;;;;0.50;99.90;;;;;;5025220;28;19990;-69
2022/12/09 03:34:42;;;;;;;;;;;0.50;99.90;;;;;;5025017;28;19913;-70
2022/12/09 03:37:08;;;;;;;;;;;0.50;99.90;;;;;;5025252;28;20298;-69
2022/12/09 03:39:34;;;;;;;;;;;0.50;99.90;;;;;;5026059;28;19917;-70
2022/12/09 03:42:00;;;;;;;;;;;0.60;99.90;;;;;;5025050;28;19913;-69
2022/12/09 03:44:43;;;;;;;;;;;0.70;99.90;;;;;;5025467;28;20322;-70
2022/12/09 03:47:09;;;;;;;;;;;0.60;99.90;;;;;;5023120;28;19924;-70
2022/12/09 03:49:35;;;;;;;;;;;0.70;99.90;;;;;;5007892;28;19920;-69
2022/12/09 03:52:12;;;;;;;;;;;0.70;99.90;;;;;;5024775;28;20008;-69
2022/12/09 03:54:43;;;;;;;;;;;0.70;99.90;;;;;;5015694;28;19917;-70
2022/12/09 03:57:10;;;;;;;;;;;0.70;99.90;;;;;;5025770;28;19913;-69
2022/12/09 03:59:36;;;;;;;;;;;0.80;99.90;;;;;;5025100;28;20007;-69
2022/12/09 04:02:03;;;;;;;;;;;0.90;99.90;;;;;;5026147;28;20520;-69
2022/12/09 04:04:29;;;;;;;;;;;0.90;99.90;;;;;;5013574;28;20432;-70
2022/12/09 04:06:55;;;;;;;;;;;0.90;99.90;;;;;;5023703;28;19912;-69
2022/12/09 04:09:20;;;;;;;;;;;1.00;99.90;;;;;;5008485;28;19967;-70
2022/12/09 04:11:46;;;;;;;;;;;1.00;99.90;;;;;;5021138;28;19913;-70
2022/12/09 04:14:11;;;;;;;;;;;1.00;99.90;;;;;;5025437;28;20418;-70
2022/12/09 04:16:37;;;;;;;;;;;1.00;99.90;;;;;;5024849;28;19913;-70
2022/12/09 04:19:03;;;;;;;;;;;1.00;99.90;;;;;;5025373;28;19912;-70
2022/12/09 04:21:28;;;;;;;;;;;1.00;99.90;;;;;;5023542;28;20341;-70
2022/12/09 04:23:54;;;;;;;;;;;1.10;99.90;;;;;;5025449;28;20013;-70
2022/12/09 04:26:20;;;;;;;;;;;1.10;99.90;;;;;;5023058;28;20295;-69
2022/12/09 04:28:46;;;;;;;;;;;1.10;99.90;;;;;;5025606;28;19924;-70
2022/12/09 04:31:12;;;;;;;;;;;1.10;99.90;;;;;;5025827;28;20255;-70
2022/12/09 04:33:38;;;;;;;;;;;1.10;99.90;;;;;;5022758;28;19917;-70
2022/12/09 04:36:05;;;;;;;;;;;1.20;99.90;;;;;;5024823;28;20663;-69
2022/12/09 04:38:30;;;;;;;;;;;1.20;99.90;;;;;;5024364;28;20251;-69
2022/12/09 04:40:58;;;;;;;;;;;1.20;99.90;;;;;;5008848;28;20110;-69
2022/12/09 04:43:23;;;;;;;;;;;1.20;99.90;;;;;;5025722;28;19917;-70
2022/12/09 04:45:49;;;;;;;;;;;1.20;99.90;;;;;;5029164;28;19959;-69
2022/12/09 04:48:14;;;;;;;;;;;1.20;99.90;;;;;;5023433;28;20327;-70
2022/12/09 04:50:40;;;;;;;;;;;1.20;99.90;;;;;;5030775;28;19943;-69
2022/12/09 04:53:06;;;;;;;;;;;1.20;99.90;;;;;;5027450;28;19913;-70
2022/12/09 04:55:31;;;;;;;;;;;1.20;99.90;;;;;;5028117;28;19913;-70
2022/12/09 04:57:57;;;;;;;;;;;1.20;99.90;;;;;;5025134;28;19960;-70
2022/12/09 05:00:22;;;;;;;;;;;1.20;99.90;;;;;;5029140;28;19913;-70
2022/12/09 05:02:48;;;;;;;;;;;1.20;99.90;;;;;;5010039;28;19908;-70
2022/12/09 05:05:14;;;;;;;;;;;1.20;99.90;;;;;;5025953;28;19948;-70
2022/12/09 05:07:39;;;;;;;;;;;1.20;99.90;;;;;;5024012;28;20630;-70
2022/12/09 05:10:05;;;;;;;;;;;1.20;99.90;;;;;;5010053;28;19913;-70
2022/12/09 05:12:31;;;;;;;;;;;1.10;99.90;;;;;;5026688;28;19944;-70
2022/12/09 05:14:57;;;;;;;;;;;1.10;99.90;;;;;;5024015;28;19924;-70
2022/12/09 05:17:23;;;;;;;;;;;1.10;99.90;;;;;;5031686;28;19913;-71
2022/12/09 05:19:49;;;;;;;;;;;1.10;99.90;;;;;;5031386;28;19952;-71
2022/12/09 05:22:17;;;;;;;;;;;1.10;99.90;;;;;;5025099;28;19913;-70
2022/12/09 05:24:43;;;;;;;;;;;1.10;99.90;;;;;;5021591;28;20315;-70
2022/12/09 05:27:09;;;;;;;;;;;1.10;99.90;;;;;;5031980;28;19923;-70
2022/12/09 05:29:35;;;;;;;;;;;1.10;99.90;;;;;;5018722;28;20335;-70
2022/12/09 05:32:00;;;;;;;;;;;1.10;99.90;;;;;;5030284;28;19912;-70
2022/12/09 05:34:26;;;;;;;;;;;0.90;99.90;;;;;;5030910;28;19916;-71
2022/12/09 05:36:52;;;;;;;;;;;1.00;99.90;;;;;;5029941;28;19917;-70
2022/12/09 05:39:17;;;;;;;;;;;0.90;99.90;;;;;;5032290;28;19960;-70
2022/12/09 05:41:45;;;;;;;;;;;1.00;99.90;;;;;;5014587;28;20526;-70
2022/12/09 05:44:11;;;;;;;;;;;1.00;99.90;;;;;;5018260;28;20360;-70
2022/12/09 05:46:36;;;;;;;;;;;1.00;99.90;;;;;;5031924;28;19923;-70
2022/12/09 05:49:02;;;;;;;;;;;1.00;99.90;;;;;;5013492;28;19917;-70
2022/12/09 05:51:28;;;;;;;;;;;1.10;99.90;;;;;;5029629;28;19952;-70
2022/12/09 05:53:53;;;;;;;;;;;1.10;99.90;;;;;;5032134;28;19913;-69
2022/12/09 05:56:19;;;;;;;;;;;1.00;99.90;;;;;;5032592;28;20239;-70
2022/12/09 05:58:45;;;;;;;;;;;1.00;99.90;;;;;;5032273;28;20285;-70
2022/12/09 06:01:11;;;;;;;;;;;1.00;99.90;;;;;;5013308;28;19920;-70
2022/12/09 06:03:36;;;;;;;;;;;1.00;99.90;;;;;;4993343;28;19956;-69
2022/12/09 06:06:06;;;;;;;;;;;1.00;99.90;;;;;;5028208;28;19913;-70
2022/12/09 06:08:31;;;;;;;;;;;1.00;99.90;;;;;;5029692;28;20019;-70
2022/12/09 06:10:57;;;;;;;;;;;0.90;99.90;;;;;;5031584;28;20690;-69
2022/12/09 06:13:22;;;;;;;;;;;0.90;99.90;;;;;;5031752;28;20289;-68
2022/12/09 06:15:48;;;;;;;;;;;0.90;99.90;;;;;;5024400;28;19913;-69
2022/12/09 06:18:14;;;;;;;;;;;0.90;99.90;;;;;;5030717;28;19913;-69
2022/12/09 06:20:40;;;;;;;;;;;0.80;99.90;;;;;;5018820;28;20247;-69
2022/12/09 06:23:05;;;;;;;;;;;0.80;99.90;;;;;;5030316;28;19955;-69
2022/12/09 06:25:31;;;;;;;;;;;0.80;99.90;;;;;;5026760;28;20441;-68
2022/12/09 06:27:57;;;;;;;;;;;0.80;99.90;;;;;;5027475;28;19917;-70
2022/12/09 06:30:22;;;;;;;;;;;0.80;99.90;;;;;;5031523;28;20000;-70
2022/12/09 06:32:48;;;;;;;;;;;0.80;99.90;;;;;;5026096;28;20349;-69
2022/12/09 06:35:14;;;;;;;;;;;0.80;99.90;;;;;;5024710;28;19909;-69
2022/12/09 06:37:39;;;;;;;;;;;0.80;99.90;;;;;;5023653;28;19968;-69
2022/12/09 06:40:05;;;;;;;;;;;0.80;99.90;;;;;;5030226;28;19932;-68
2022/12/09 06:42:31;;;;;;;;;;;0.80;99.90;;;;;;5030970;28;19913;-69
2022/12/09 06:44:56;;;;;;;;;;;0.80;99.90;;;;;;5029357;28;20012;-69
2022/12/09 06:47:22;;;;;;;;;;;0.80;99.90;;;;;;5030889;28;19917;-69
2022/12/09 06:49:47;;;;;;;;;;;0.80;99.90;;;;;;5008575;28;20032;-69
2022/12/09 06:52:13;;;;;;;;;;;0.70;99.90;;;;;;5030522;28;20270;-69
2022/12/09 06:54:39;;;;;;;;;;;0.70;99.90;;;;;;5029492;28;20072;-69
2022/12/09 06:57:04;;;;;;;;;;;0.80;99.90;;;;;;5027121;28;20315;-69
2022/12/09 06:59:30;;;;;;;;;;;0.80;99.90;;;;;;5029362;28;20528;-69
2022/12/09 07:01:56;;;;;;;;;;;0.80;99.90;;;;;;5030476;28;19913;-69
2022/12/09 07:04:21;;;;;;;;;;;0.80;99.90;;;;;;5029195;28;20347;-68
2022/12/09 07:06:47;;;;;;;;;;;0.80;99.90;;;;;;5008825;28;20339;-70
2022/12/09 07:09:17;;;;;;;;;;;0.80;99.90;;;;;;5030684;28;19973;-69
2022/12/09 07:11:44;;;;;;;;;;;0.80;99.90;;;;;;5028340;28;19913;-69
2022/12/09 07:14:10;;;;;;;;;;;0.80;99.90;;;;;;5028609;28;20327;-70
2022/12/09 07:16:36;;;;;;;;;;;0.80;99.90;;;;;;5028000;28;19967;-69
2022/12/09 07:19:02;;;;;;;;;;;0.80;99.90;;;;;;5012592;28;20353;-69
2022/12/09 07:21:27;;;;;;;;;;;0.80;99.90;;;;;;5029127;28;20382;-70
2022/12/09 07:23:53;;;;;;;;;;;0.80;99.90;;;;;;5008709;28;19927;-70
2022/12/09 07:26:19;;;;;;;;;;;0.80;99.90;;;;;;5029299;28;20276;-70
2022/12/09 07:28:46;;;;;;;;;;;0.80;99.90;;;;;;5029222;28;19932;-69
2022/12/09 07:31:19;;;;;;;;;;;0.70;99.90;;;;;;5025349;28;19963;-69
2022/12/09 07:33:44;;;;;;;;;;;0.70;99.90;;;;;;5009328;28;19920;-69
2022/12/09 07:36:10;;;;;;;;;;;0.70;99.90;;;;;;5026075;28;19996;-70
2022/12/09 07:38:35;;;;;;;;;;;0.70;99.90;;;;;;5018163;28;19921;-70
2022/12/09 07:41:05;;;;;;;;;;;0.60;99.90;;;;;;5026747;28;19992;-70
2022/12/09 07:43:34;;;;;;;;;;;0.70;99.90;;;;;;5029222;28;20051;-70
2022/12/09 07:46:06;;;;;;;;;;;0.70;99.90;;;;;;5010392;28;20383;-70
2022/12/09 07:48:31;;;;;;;;;;;0.70;99.90;;;;;;5029728;28;20071;-70
2022/12/09 07:51:00;;;;;;;;;;;0.80;99.90;;;;;;4999143;28;20047;-70
2022/12/09 07:53:26;;;;;;;;;;;0.80;99.90;;;;;;5028104;28;19913;-65
2022/12/09 07:55:51;;;;;;;;;;;0.80;99.90;;;;;;5014159;28;20794;-64
2022/12/09 07:58:17;;;;;;;;;;;0.80;99.90;;;;;;5028947;28;19917;-65
2022/12/09 08:00:43;;;;;;;;;;;0.80;99.90;;;;;;5027529;28;19959;-64
2022/12/09 08:03:09;;;;;;;;;;;0.80;99.90;;;;;;5028508;28;19971;-65
2022/12/09 08:05:35;;;;;;;;;;;0.80;99.90;;;;;;5021481;28;19913;-64
2022/12/09 08:08:01;;;;;;;;;;;0.80;99.90;;;;;;5011853;28;19912;-64
2022/12/09 08:10:26;;;;;;;;;;;0.90;99.90;;;;;;5029507;28;19922;-65
2022/12/09 08:12:52;;;;;;;;;;;0.90;99.90;;;;;;5027470;28;19909;-64
2022/12/09 08:15:18;;;;;;;;;;;0.90;99.90;;;;;;5011946;28;19909;-64
2022/12/09 08:17:44;;;;;;;;;;;1.00;99.90;;;;;;5028358;28;19909;-65
2022/12/09 08:20:10;;;;;;;;;;;1.00;99.90;;;;;;5011390;28;19947;-65
2022/12/09 08:22:36;;;;;;;;;;;1.00;99.90;;;;;;5029137;28;19913;-64
2022/12/09 08:25:01;;;;;;;;;;;1.00;99.90;;;;;;5023782;28;19913;-64
2022/12/09 08:27:27;;;;;;;;;;;1.00;99.90;;;;;;5029059;28;19936;-65
2022/12/09 08:29:53;;;;;;;;;;;1.10;99.90;;;;;;5008205;28;20675;-65
2022/12/09 08:32:19;;;;;;;;;;;1.10;99.90;;;;;;5023814;28;19978;-65
2022/12/09 08:34:44;;;;;;;;;;;1.10;99.90;;;;;;5027773;28;20558;-65
2022/12/09 08:37:10;;;;;;;;;;;1.10;99.90;;;;;;5016587;28;19959;-64
2022/12/09 08:39:35;;;;;;;;;;;1.10;99.90;;;;;;5029225;28;19928;-64
2022/12/09 08:42:01;;;;;;;;;;;1.10;99.90;;;;;;5027064;28;19974;-64
2022/12/09 08:44:26;;;;;;;;;;;1.20;99.90;;;;;;5027949;28;19917;-64
2022/12/09 08:46:52;;;;;;;;;;;1.10;99.90;;;;;;5022993;28;20756;-66
2022/12/09 08:49:19;;;;;;;;;;;1.20;99.90;;;;;;5029365;28;19927;-65
2022/12/09 08:51:45;;;;;;;;;;;1.20;99.90;;;;;;5032843;28;19913;-65
2022/12/09 08:54:11;;;;;;;;;;;1.30;99.90;;;;;;5015027;28;19979;-65
2022/12/09 08:56:37;;;;;;;;;;;1.30;99.90;;;;;;5017033;28;19932;-65
2022/12/09 08:59:02;;;;;;;;;;;1.30;99.90;;;;;;5023833;28;19912;-65
2022/12/09 09:01:31;;;;;;;;;;;1.30;99.90;;;;;;5024487;28;19923;-64
2022/12/09 09:03:57;;;;;;;;;;;1.40;99.90;;;;;;5026213;28;19909;-65
2022/12/09 09:06:23;;;;;;;;;;;1.40;99.90;;;;;;5030044;28;20014;-65
2022/12/09 09:08:48;;;;;;;;;;;1.40;99.90;;;;;;5009676;28;19982;-66
2022/12/09 09:11:15;;;;;;;;;;;1.40;99.90;;;;;;5027676;28;19916;-64
2022/12/09 09:13:41;;;;;;;;;;;1.50;99.90;;;;;;5013609;28;19920;-65
2022/12/09 09:16:10;;;;;;;;;;;1.50;99.90;;;;;;5030438;28;19913;-65
2022/12/09 09:18:36;;;;;;;;;;;1.50;99.90;;;;;;5030457;28;20354;-64
2022/12/09 09:21:01;;;;;;;;;;;1.50;99.90;;;;;;5028817;28;19913;-65
2022/12/09 09:23:27;;;;;;;;;;;1.50;99.90;;;;;;5004416;28;19920;-65
2022/12/09 09:25:53;;;;;;;;;;;1.50;99.90;;;;;;5029620;28;20286;-65
2022/12/09 09:28:18;;;;;;;;;;;1.60;99.90;;;;;;5027605;28;20048;-64
2022/12/09 09:30:49;;;;;;;;;;;1.60;99.90;;;;;;5027266;28;19913;-64
2022/12/09 09:33:17;;;;;;;;;;;1.60;99.90;;;;;;5014010;28;20004;-64
2022/12/09 09:35:42;;;;;;;;;;;1.50;99.90;;;;;;5030639;28;19939;-65
2022/12/09 09:38:08;;;;;;;;;;;1.50;99.90;;;;;;5020154;28;20008;-64
2022/12/09 09:40:34;;;;;;;;;;;1.60;99.90;;;;;;5028650;28;19924;-64
2022/12/09 09:42:59;;;;;;;;;;;1.60;99.90;;;;;;5027071;28;19913;-64
2022/12/09 09:45:25;;;;;;;;;;;1.60;99.90;;;;;;5030750;28;20684;-66
2022/12/09 09:47:52;;;;;;;;;;;1.70;99.90;;;;;;5025733;28;19919;-65
2022/12/09 09:50:25;;;;;;;;;;;1.80;99.90;;;;;;5030753;28;20066;-65
2022/12/09 09:52:51;;;;;;;;;;;2.00;99.90;;;;;;5024335;28;20326;-64
2022/12/09 09:55:17;;;;;;;;;;;2.20;99.90;;;;;;5014456;28;19924;-64
2022/12/09 09:57:45;;;;;;;;;;;2.40;99.90;;;;;;5029801;28;19927;-65
2022/12/09 10:00:11;;;;;;;;;;;2.60;99.90;;;;;;5030870;28;19917;-66
2022/12/09 10:02:57;;;;;;;;;;;2.70;99.90;;;;;;5028490;28;20465;-65
2022/12/09 10:05:27;;;;;;;;;;;2.80;99.90;;;;;;5013958;28;20333;-64
2022/12/09 10:07:55;;;;;;;;;;;2.70;99.90;;;;;;5030596;28;20313;-65
2022/12/09 10:10:21;;;;;;;;;;;2.70;99.90;;;;;;5030130;28;20078;-65
2022/12/09 10:12:52;;;;;;;;;;;2.70;99.90;;;;;;5030699;28;20032;-65
2022/12/09 10:15:19;;;;;;;;;;;2.70;99.90;;;;;;5030741;28;19916;-67
2022/12/09 10:17:49;;;;;;;;;;;2.60;99.90;;;;;;5007024;28;19913;-65
2022/12/09 10:20:14;;;;;;;;;;;2.30;99.90;;;;;;5027487;28;20327;-65
2022/12/09 10:22:41;;;;;;;;;;;2.20;99.90;;;;;;5013358;28;20477;-65
2022/12/09 10:25:14;;;;;;;;;;;2.30;99.90;;;;;;5031886;28;19916;-65
2022/12/09 10:27:51;;;;;;;;;;;2.00;99.90;;;;;;5012414;28;19978;-67
2022/12/09 10:30:17;;;;;;;;;;;1.90;99.90;;;;;;5030424;28;19920;-65
2022/12/09 10:32:43;;;;;;;;;;;1.80;99.90;;;;;;5030087;28;19913;-65
2022/12/09 10:35:16;;;;;;;;;;;1.60;99.90;;;;;;5029578;28;19962;-65
2022/12/09 10:37:42;;;;;;;;;;;1.70;99.90;;;;;;5013363;28;19970;-65
2022/12/09 10:40:10;;;;;;;;;;;1.50;99.90;;;;;;5031174;28;20011;-66
2022/12/09 10:45:30;;;;;;;;;;;1.50;99.90;;;;;;5025197;28;19948;-66
2022/12/09 10:47:56;;;;;;;;;;;1.50;99.90;;;;;;5027039;28;19913;-66
2022/12/09 10:50:30;;;;;;;;;;;1.50;99.90;;;;;;5013433;28;20275;-64
2022/12/09 10:52:56;;;;;;;;;;;1.50;99.90;;;;;;5025042;28;19913;-64
2022/12/09 10:55:23;;;;;;;;;;;1.60;99.90;;;;;;5024383;28;19963;-67
2022/12/09 10:57:49;;;;;;;;;;;1.70;99.90;;;;;;5029947;28;19920;-65
2022/12/09 11:00:21;;;;;;;;;;;1.60;99.90;;;;;;5027032;28;19913;-66
2022/12/09 11:02:51;;;;;;;;;;;1.60;99.90;;;;;;5021887;28;19917;-64
2022/12/09 11:05:24;;;;;;;;;;;1.50;99.90;;;;;;5023820;28;19920;-65
2022/12/09 11:07:50;;;;;;;;;;;1.60;99.90;;;;;;5029781;28;19913;-65
2022/12/09 11:10:17;;;;;;;;;;;1.60;99.90;;;;;;5029956;28;19932;-65
2022/12/09 11:12:42;;;;;;;;;;;1.80;99.90;;;;;;5029662;28;19949;-65
2022/12/09 11:15:11;;;;;;;;;;;1.80;99.90;;;;;;5030876;28;19955;-66
2022/12/09 11:17:38;;;;;;;;;;;1.90;99.90;;;;;;5023115;28;19988;-65
2022/12/09 11:20:04;;;;;;;;;;;2.00;99.90;;;;;;5022887;28;20424;-65
2022/12/09 11:22:39;;;;;;;;;;;2.00;99.90;;;;;;5030151;28;19913;-65
2022/12/09 11:25:15;;;;;;;;;;;1.90;99.90;;;;;;5030052;28;20204;-65
2022/12/09 11:27:46;;;;;;;;;;;2.00;99.90;;;;;;5012092;28;19913;-64
2022/12/09 11:30:17;;;;;;;;;;;2.00;99.90;;;;;;5028955;28;19916;-64
2022/12/09 11:32:55;;;;;;;;;;;2.10;99.90;;;;;;5029120;28;20008;-65
2022/12/09 11:35:39;;;;;;;;;;;2.10;99.90;;;;;;5027854;28;20412;-65
2022/12/09 11:38:31;;;;;;;;;;;2.10;99.90;;;;;;5028906;28;19928;-65
2022/12/09 11:42:12;;;;;;;;;;;2.10;99.90;;;;;;5029303;28;19932;-65
2022/12/09 11:44:11;;;;;;;;;;;2.10;99.90;;;;;;5025954;28;19912;-65
2022/12/09 11:46:37;;;;;;;;;;;2.20;99.90;;;;;;5028577;28;19917;-65
2022/12/09 11:49:04;;;;;;;;;;;2.20;99.90;;;;;;5027968;28;19932;-65
2022/12/09 11:51:36;;;;;;;;;;;2.20;99.90;;;;;;5029582;28;19913;-65
2022/12/09 11:54:12;;;;;;;;;;;2.20;99.90;;;;;;5007128;28;19914;-66
2022/12/09 11:56:37;;;;;;;;;;;2.30;99.90;;;;;;5027443;28;20434;-66
2022/12/09 11:59:13;;;;;;;;;;;2.30;99.90;;;;;;5012576;28;19959;-66
2022/12/09 12:01:41;;;;;;;;;;;2.40;99.90;;;;;;5028769;28;20011;-65
2022/12/09 12:04:08;;;;;;;;;;;2.40;99.90;;;;;;5022940;28;20319;-65
2022/12/09 12:06:46;;;;;;;;;;;2.40;99.90;;;;;;5016206;28;19913;-64
2022/12/09 12:09:18;;;;;;;;;;;2.40;99.90;;;;;;5028198;28;20327;-65
2022/12/09 12:11:47;;;;;;;;;;;2.40;99.90;;;;;;5027361;28;19912;-65
2022/12/09 12:14:13;;;;;;;;;;;2.40;99.90;;;;;;5026200;28;19917;-66
2022/12/09 12:16:42;;;;;;;;;;;2.40;99.90;;;;;;5011836;28;20342;-66
2022/12/09 12:19:12;;;;;;;;;;;2.50;99.90;;;;;;5028972;28;19928;-68
2022/12/09 12:21:58;;;;;;;;;;;2.50;99.90;;;;;;5027481;28;19917;-65
2022/12/09 12:24:27;;;;;;;;;;;2.50;99.90;;;;;;5026967;28;19923;-65
2022/12/09 12:27:11;;;;;;;;;;;2.50;99.90;;;;;;5026662;28;19913;-66
2022/12/09 12:29:37;;;;;;;;;;;2.50;99.90;;;;;;5026498;28;19928;-64
2022/12/09 12:32:03;;;;;;;;;;;2.50;99.90;;;;;;5029411;28;19913;-65
2022/12/09 12:34:30;;;;;;;;;;;2.60;99.90;;;;;;5030846;28;19909;-65
2022/12/09 12:36:59;;;;;;;;;;;2.60;99.90;;;;;;5032392;28;20315;-65
2022/12/09 12:39:30;;;;;;;;;;;2.60;99.90;;;;;;5026890;28;19920;-65
2022/12/09 12:42:01;;;;;;;;;;;2.60;99.90;;;;;;5030312;28;19920;-65
2022/12/09 12:47:34;;;;;;;;;;;2.60;99.90;;;;;;5026221;28;19913;-65
2022/12/09 12:50:19;;;;;;;;;;;2.50;99.90;;;;;;5031903;28;19920;-65
2022/12/09 12:52:48;;;;;;;;;;;2.50;99.90;;;;;;5032244;28;20124;-65
2022/12/09 12:55:20;;;;;;;;;;;2.60;99.90;;;;;;5024304;28;20093;-65
2022/12/09 12:57:48;;;;;;;;;;;2.60;99.90;;;;;;5028261;28;19915;-72
2022/12/09 13:00:18;;;;;;;;;;;2.60;99.90;;;;;;5032856;28;19912;-72
2022/12/09 13:02:56;;;;;;;;;;;2.70;99.90;;;;;;5031802;28;19916;-72
2022/12/09 13:05:26;;;;;;;;;;;2.70;99.90;;;;;;5031013;28;20004;-76
2022/12/09 13:08:00;;;;;;;;;;;2.80;99.90;;;;;;5012312;28;19920;-71
2022/12/09 13:10:52;;;;;;;;;;;2.80;99.90;;;;;;5014099;28;19916;-71
2022/12/09 13:13:21;;;;;;;;;;;2.90;99.90;;;;;;5028352;28;19917;-71
2022/12/09 13:15:50;;;;;;;;;;;3.10;99.90;;;;;;5031958;28;20003;-72
2022/12/09 13:18:18;;;;;;;;;;;3.10;99.90;;;;;;5031738;28;19927;-65
2022/12/09 13:20:48;;;;;;;;;;;3.10;99.90;;;;;;5028451;28;19988;-65
2022/12/09 13:23:16;;;;;;;;;;;3.20;99.90;;;;;;5009966;28;19940;-65
2022/12/09 13:25:51;;;;;;;;;;;3.20;99.90;;;;;;5025099;28;20010;-65
2022/12/09 13:28:17;;;;;;;;;;;3.20;99.90;;;;;;5026615;28;20312;-66
2022/12/09 13:30:46;;;;;;;;;;;3.10;99.90;;;;;;5028849;28;19917;-65
2022/12/09 13:33:11;;;;;;;;;;;3.10;99.90;;;;;;5026836;28;19912;-65
2022/12/09 13:35:42;;;;;;;;;;;3.10;99.90;;;;;;5028608;28;19927;-66
2022/12/09 13:38:23;;;;;;;;;;;3.10;99.90;;;;;;5013724;28;20319;-65
2022/12/09 13:40:49;;;;;;;;;;;3.10;99.90;;;;;;5028967;28;19913;-65
2022/12/09 13:43:22;;;;;;;;;;;3.00;99.90;;;;;;5011494;28;20678;-65
2022/12/09 13:45:48;;;;;;;;;;;3.10;99.90;;;;;;5028443;28;19920;-65
2022/12/09 13:48:14;;;;;;;;;;;3.00;99.90;;;;;;5031234;28;19913;-66
2022/12/09 13:50:43;;;;;;;;;;;2.90;99.90;;;;;;5031801;28;19978;-66
2022/12/09 13:53:18;;;;;;;;;;;2.90;99.90;;;;;;5006460;28;20537;-66
2022/12/09 13:55:50;;;;;;;;;;;2.90;99.90;;;;;;5030656;28;19920;-64
2022/12/09 13:58:22;;;;;;;;;;;2.90;99.90;;;;;;5031885;28;19924;-64
2022/12/09 14:00:58;;;;;;;;;;;2.90;99.90;;;;;;5031777;28;20238;-66
2022/12/09 14:03:31;;;;;;;;;;;2.80;99.90;;;;;;5013666;28;19913;-65
2022/12/09 14:05:57;;;;;;;;;;;2.80;99.90;;;;;;5025167;28;19963;-65
2022/12/09 14:08:23;;;;;;;;;;;2.80;99.90;;;;;;5023273;28;19952;-66
2022/12/09 14:10:51;;;;;;;;;;;2.80;99.90;;;;;;4994668;28;19931;-65
2022/12/09 14:13:21;;;;;;;;;;;2.80;99.90;;;;;;5031058;28;19916;-65
2022/12/09 14:15:47;;;;;;;;;;;2.80;99.90;;;;;;5011068;28;20246;-65
2022/12/09 14:18:27;;;;;;;;;;;2.70;99.90;;;;;;5013786;28;20461;-66
2022/12/09 14:21:11;;;;;;;;;;;2.70;99.90;;;;;;5012263;28;19959;-65
2022/12/09 14:23:37;;;;;;;;;;;2.70;99.90;;;;;;5030057;28;19917;-64
2022/12/09 14:26:04;;;;;;;;;;;2.70;99.90;;;;;;5013064;28;20286;-64
2022/12/09 14:28:32;;;;;;;;;;;2.70;99.90;;;;;;5013710;28;19913;-65
2022/12/09 14:30:58;;;;;;;;;;;2.70;99.90;;;;;;5027974;28;19927;-65
2022/12/09 14:33:43;;;;;;;;;;;2.70;99.90;;;;;;5013658;28;19913;-65
2022/12/09 14:36:12;;;;;;;;;;;2.60;99.90;;;;;;5011966;28;20423;-65
2022/12/09 14:38:43;;;;;;;;;;;2.60;99.90;;;;;;5026132;28;20070;-65
2022/12/09 14:41:12;;;;;;;;;;;2.60;99.90;;;;;;5010718;28;20000;-65